sensor_id;sensor_type;location;lat;lon;timestamp;P1;durP1;ratioP1;P2;durP2;ratioP2
9783;SDS011;4931;44.874;-1.092;2023-07-22T00:00:14;10.02;;;5.80;;
9783;SDS011;4931;44.874;-1.092;2023-07-22T00:02:43;9.45;;;6.20;;
9783;SDS011;4931;44.874;-1.092;2023-07-22T00:05:09;9.82;;;6.03;;
9783;SDS011;4931;44.874;-1.092;2023-07-22T00:07:39;9.90;;;6.13;;
9783;SDS011;4931;44.874;-1.092;2023-07-22T00:10:05;9.95;;;5.78;;
9783;SDS011;4931;44.874;-1.092;2023-07-22T00:12:33;8.93;;;5.90;;
9783;SDS011;4931;44.874;-1.092;2023-07-22T00:14:59;8.60;;;5.47;;
9783;SDS011;4931;44.874;-1.092;2023-07-22T00:17:25;8.05;;;5.72;;
9783;SDS011;4931;44.874;-1.092;2023-07-22T00:19:50;14.02;;;6.07;;
9783;SDS011;4931;44.874;-1.092;2023-07-22T00:22:16;7.38;;;6.07;;
9783;SDS011;4931;44.874;-1.092;2023-07-22T00:24:42;8.23;;;5.65;;
9783;SDS011;4931;44.874;-1.092;2023-07-22T00:27:07;10.18;;;6.30;;
9783;SDS011;4931;44.874;-1.092;2023-07-22T00:29:34;9.20;;;6.00;;
9783;SDS011;4931;44.874;-1.092;2023-07-22T00:32:00;8.38;;;6.38;;
9783;SDS011;4931;44.874;-1.092;2023-07-22T00:34:25;8.40;;;6.25;;
9783;SDS011;4931;44.874;-1.092;2023-07-22T00:36:51;9.90;;;6.10;;
9783;SDS011;4931;44.874;-1.092;2023-07-22T00:39:17;9.90;;;6.65;;
9783;SDS011;4931;44.874;-1.092;2023-07-22T00:41:43;8.48;;;5.88;;
9783;SDS011;4931;44.874;-1.092;2023-07-22T00:44:12;10.68;;;5.50;;
9783;SDS011;4931;44.874;-1.092;2023-07-22T00:46:38;7.90;;;5.93;;
9783;SDS011;4931;44.874;-1.092;2023-07-22T00:49:07;10.00;;;6.03;;
9783;SDS011;4931;44.874;-1.092;2023-07-22T00:51:33;7.57;;;5.95;;
9783;SDS011;4931;44.874;-1.092;2023-07-22T00:53:59;11.25;;;5.60;;
9783;SDS011;4931;44.874;-1.092;2023-07-22T00:56:24;10.40;;;6.22;;
9783;SDS011;4931;44.874;-1.092;2023-07-22T00:58:51;9.18;;;5.80;;
9783;SDS011;4931;44.874;-1.092;2023-07-22T01:01:17;10.57;;;6.35;;
9783;SDS011;4931;44.874;-1.092;2023-07-22T01:03:42;8.55;;;6.03;;
9783;SDS011;4931;44.874;-1.092;2023-07-22T01:06:09;12.32;;;5.95;;
9783;SDS011;4931;44.874;-1.092;2023-07-22T01:08:35;9.50;;;6.57;;
9783;SDS011;4931;44.874;-1.092;2023-07-22T01:11:00;10.32;;;6.47;;
9783;SDS011;4931;44.874;-1.092;2023-07-22T01:13:26;9.02;;;6.32;;
9783;SDS011;4931;44.874;-1.092;2023-07-22T01:15:52;12.15;;;7.15;;
9783;SDS011;4931;44.874;-1.092;2023-07-22T01:18:18;8.65;;;6.38;;
9783;SDS011;4931;44.874;-1.092;2023-07-22T01:20:44;9.75;;;6.15;;
9783;SDS011;4931;44.874;-1.092;2023-07-22T01:23:11;9.10;;;6.35;;
9783;SDS011;4931;44.874;-1.092;2023-07-22T01:25:37;9.27;;;5.95;;
9783;SDS011;4931;44.874;-1.092;2023-07-22T01:28:02;9.00;;;6.25;;
9783;SDS011;4931;44.874;-1.092;2023-07-22T01:30:28;10.18;;;6.60;;
9783;SDS011;4931;44.874;-1.092;2023-07-22T01:32:53;12.07;;;6.10;;
9783;SDS011;4931;44.874;-1.092;2023-07-22T01:35:19;9.52;;;6.47;;
9783;SDS011;4931;44.874;-1.092;2023-07-22T01:37:44;8.63;;;6.43;;
9783;SDS011;4931;44.874;-1.092;2023-07-22T01:40:10;9.07;;;6.60;;
9783;SDS011;4931;44.874;-1.092;2023-07-22T01:42:37;9.05;;;6.30;;
9783;SDS011;4931;44.874;-1.092;2023-07-22T01:45:07;10.88;;;6.53;;
9783;SDS011;4931;44.874;-1.092;2023-07-22T01:47:34;9.05;;;6.30;;
9783;SDS011;4931;44.874;-1.092;2023-07-22T01:50:01;10.90;;;6.30;;
9783;SDS011;4931;44.874;-1.092;2023-07-22T01:52:31;9.10;;;6.10;;
9783;SDS011;4931;44.874;-1.092;2023-07-22T01:54:57;9.18;;;6.22;;
9783;SDS011;4931;44.874;-1.092;2023-07-22T01:57:22;8.65;;;6.47;;
9783;SDS011;4931;44.874;-1.092;2023-07-22T01:59:48;11.20;;;6.60;;
9783;SDS011;4931;44.874;-1.092;2023-07-22T02:02:13;12.77;;;7.10;;
9783;SDS011;4931;44.874;-1.092;2023-07-22T02:04:39;13.52;;;7.13;;
9783;SDS011;4931;44.874;-1.092;2023-07-22T02:07:04;12.35;;;7.40;;
9783;SDS011;4931;44.874;-1.092;2023-07-22T02:09:31;9.20;;;6.63;;
9783;SDS011;4931;44.874;-1.092;2023-07-22T02:11:58;11.05;;;7.05;;
9783;SDS011;4931;44.874;-1.092;2023-07-22T02:14:24;11.93;;;6.78;;
9783;SDS011;4931;44.874;-1.092;2023-07-22T02:16:49;9.48;;;6.50;;
9783;SDS011;4931;44.874;-1.092;2023-07-22T02:19:15;12.70;;;6.55;;
9783;SDS011;4931;44.874;-1.092;2023-07-22T02:21:41;12.65;;;7.15;;
9783;SDS011;4931;44.874;-1.092;2023-07-22T02:24:07;11.10;;;6.80;;
9783;SDS011;4931;44.874;-1.092;2023-07-22T02:26:33;9.93;;;6.90;;
9783;SDS011;4931;44.874;-1.092;2023-07-22T02:28:58;13.40;;;7.25;;
9783;SDS011;4931;44.874;-1.092;2023-07-22T02:31:24;11.82;;;6.72;;
9783;SDS011;4931;44.874;-1.092;2023-07-22T02:33:50;15.20;;;7.38;;
9783;SDS011;4931;44.874;-1.092;2023-07-22T02:36:16;13.77;;;7.68;;
9783;SDS011;4931;44.874;-1.092;2023-07-22T02:38:42;12.38;;;7.30;;
9783;SDS011;4931;44.874;-1.092;2023-07-22T02:41:07;11.90;;;7.25;;
9783;SDS011;4931;44.874;-1.092;2023-07-22T02:43:33;10.50;;;7.18;;
9783;SDS011;4931;44.874;-1.092;2023-07-22T02:46:04;8.75;;;6.45;;
9783;SDS011;4931;44.874;-1.092;2023-07-22T02:48:32;9.55;;;7.00;;
9783;SDS011;4931;44.874;-1.092;2023-07-22T02:51:05;11.23;;;7.00;;
9783;SDS011;4931;44.874;-1.092;2023-07-22T02:53:32;11.02;;;6.80;;
9783;SDS011;4931;44.874;-1.092;2023-07-22T02:55:58;10.15;;;7.32;;
9783;SDS011;4931;44.874;-1.092;2023-07-22T02:58:24;11.40;;;7.18;;
9783;SDS011;4931;44.874;-1.092;2023-07-22T03:00:50;10.05;;;6.63;;
9783;SDS011;4931;44.874;-1.092;2023-07-22T03:03:15;10.85;;;7.15;;
9783;SDS011;4931;44.874;-1.092;2023-07-22T03:05:41;11.13;;;6.80;;
9783;SDS011;4931;44.874;-1.092;2023-07-22T03:08:06;10.18;;;7.18;;
9783;SDS011;4931;44.874;-1.092;2023-07-22T03:10:32;15.05;;;6.80;;
9783;SDS011;4931;44.874;-1.092;2023-07-22T03:12:58;10.25;;;6.75;;
9783;SDS011;4931;44.874;-1.092;2023-07-22T03:15:25;11.95;;;6.95;;
9783;SDS011;4931;44.874;-1.092;2023-07-22T03:17:54;12.80;;;7.28;;
9783;SDS011;4931;44.874;-1.092;2023-07-22T03:20:27;10.93;;;7.32;;
9783;SDS011;4931;44.874;-1.092;2023-07-22T03:22:52;11.07;;;7.13;;
9783;SDS011;4931;44.874;-1.092;2023-07-22T03:25:19;12.00;;;7.35;;
9783;SDS011;4931;44.874;-1.092;2023-07-22T03:27:45;10.75;;;7.38;;
9783;SDS011;4931;44.874;-1.092;2023-07-22T03:30:13;12.68;;;8.05;;
9783;SDS011;4931;44.874;-1.092;2023-07-22T03:32:43;12.27;;;7.10;;
9783;SDS011;4931;44.874;-1.092;2023-07-22T03:35:10;12.40;;;7.10;;
9783;SDS011;4931;44.874;-1.092;2023-07-22T03:37:36;12.98;;;7.00;;
9783;SDS011;4931;44.874;-1.092;2023-07-22T03:40:04;11.95;;;7.22;;
9783;SDS011;4931;44.874;-1.092;2023-07-22T03:42:42;13.80;;;7.25;;
9783;SDS011;4931;44.874;-1.092;2023-07-22T03:45:08;11.52;;;7.18;;
9783;SDS011;4931;44.874;-1.092;2023-07-22T03:47:37;12.18;;;7.82;;
9783;SDS011;4931;44.874;-1.092;2023-07-22T03:50:04;12.43;;;7.28;;
9783;SDS011;4931;44.874;-1.092;2023-07-22T03:52:31;11.02;;;7.50;;
9783;SDS011;4931;44.874;-1.092;2023-07-22T03:54:56;10.15;;;6.78;;
9783;SDS011;4931;44.874;-1.092;2023-07-22T03:57:28;12.07;;;7.53;;
9783;SDS011;4931;44.874;-1.092;2023-07-22T03:59:54;11.90;;;7.32;;
9783;SDS011;4931;44.874;-1.092;2023-07-22T04:02:20;13.18;;;7.32;;
9783;SDS011;4931;44.874;-1.092;2023-07-22T04:04:46;11.63;;;7.47;;
9783;SDS011;4931;44.874;-1.092;2023-07-22T04:07:12;11.73;;;7.47;;
9783;SDS011;4931;44.874;-1.092;2023-07-22T04:09:37;13.55;;;7.55;;
9783;SDS011;4931;44.874;-1.092;2023-07-22T04:12:03;11.73;;;7.20;;
9783;SDS011;4931;44.874;-1.092;2023-07-22T04:14:29;12.43;;;7.40;;
9783;SDS011;4931;44.874;-1.092;2023-07-22T04:16:55;11.20;;;7.25;;
9783;SDS011;4931;44.874;-1.092;2023-07-22T04:19:20;12.20;;;7.13;;
9783;SDS011;4931;44.874;-1.092;2023-07-22T04:21:46;11.88;;;7.28;;
9783;SDS011;4931;44.874;-1.092;2023-07-22T04:24:11;10.77;;;7.25;;
9783;SDS011;4931;44.874;-1.092;2023-07-22T04:26:37;13.48;;;7.05;;
9783;SDS011;4931;44.874;-1.092;2023-07-22T04:29:02;12.48;;;7.40;;
9783;SDS011;4931;44.874;-1.092;2023-07-22T04:31:28;11.00;;;6.93;;
9783;SDS011;4931;44.874;-1.092;2023-07-22T04:33:54;11.00;;;6.93;;
9783;SDS011;4931;44.874;-1.092;2023-07-22T04:36:19;11.75;;;7.55;;
9783;SDS011;4931;44.874;-1.092;2023-07-22T04:38:45;11.63;;;7.28;;
9783;SDS011;4931;44.874;-1.092;2023-07-22T04:41:10;10.48;;;7.15;;
9783;SDS011;4931;44.874;-1.092;2023-07-22T04:43:36;10.88;;;7.20;;
9783;SDS011;4931;44.874;-1.092;2023-07-22T04:46:01;11.10;;;6.90;;
9783;SDS011;4931;44.874;-1.092;2023-07-22T04:48:27;9.82;;;6.78;;
9783;SDS011;4931;44.874;-1.092;2023-07-22T04:50:52;12.52;;;7.57;;
9783;SDS011;4931;44.874;-1.092;2023-07-22T04:53:18;10.43;;;7.10;;
9783;SDS011;4931;44.874;-1.092;2023-07-22T04:55:43;12.07;;;6.82;;
9783;SDS011;4931;44.874;-1.092;2023-07-22T04:58:09;13.73;;;7.05;;
9783;SDS011;4931;44.874;-1.092;2023-07-22T05:00:36;12.60;;;8.13;;
9783;SDS011;4931;44.874;-1.092;2023-07-22T05:03:02;13.32;;;7.60;;
9783;SDS011;4931;44.874;-1.092;2023-07-22T05:05:28;12.43;;;7.28;;
9783;SDS011;4931;44.874;-1.092;2023-07-22T05:07:57;10.38;;;6.63;;
9783;SDS011;4931;44.874;-1.092;2023-07-22T05:10:22;10.65;;;6.60;;
9783;SDS011;4931;44.874;-1.092;2023-07-22T05:12:48;12.82;;;7.00;;
9783;SDS011;4931;44.874;-1.092;2023-07-22T05:15:13;12.90;;;6.90;;
9783;SDS011;4931;44.874;-1.092;2023-07-22T05:17:40;15.82;;;8.05;;
9783;SDS011;4931;44.874;-1.092;2023-07-22T05:20:06;18.38;;;7.93;;
9783;SDS011;4931;44.874;-1.092;2023-07-22T05:22:35;14.75;;;7.43;;
9783;SDS011;4931;44.874;-1.092;2023-07-22T05:25:02;13.68;;;7.30;;
9783;SDS011;4931;44.874;-1.092;2023-07-22T05:27:29;12.43;;;8.07;;
9783;SDS011;4931;44.874;-1.092;2023-07-22T05:29:55;12.70;;;7.50;;
9783;SDS011;4931;44.874;-1.092;2023-07-22T05:32:20;12.73;;;7.10;;
9783;SDS011;4931;44.874;-1.092;2023-07-22T05:34:46;11.15;;;6.80;;
9783;SDS011;4931;44.874;-1.092;2023-07-22T05:37:11;14.77;;;7.88;;
9783;SDS011;4931;44.874;-1.092;2023-07-22T05:39:37;12.75;;;7.82;;
9783;SDS011;4931;44.874;-1.092;2023-07-22T05:42:02;11.95;;;8.13;;
9783;SDS011;4931;44.874;-1.092;2023-07-22T05:44:28;10.05;;;7.20;;
9783;SDS011;4931;44.874;-1.092;2023-07-22T05:46:54;11.77;;;6.90;;
9783;SDS011;4931;44.874;-1.092;2023-07-22T05:49:20;11.93;;;7.35;;
9783;SDS011;4931;44.874;-1.092;2023-07-22T05:51:45;12.68;;;7.68;;
9783;SDS011;4931;44.874;-1.092;2023-07-22T05:54:11;14.48;;;7.43;;
9783;SDS011;4931;44.874;-1.092;2023-07-22T05:56:36;11.80;;;7.50;;
9783;SDS011;4931;44.874;-1.092;2023-07-22T05:59:02;12.63;;;7.22;;
9783;SDS011;4931;44.874;-1.092;2023-07-22T06:01:27;14.15;;;7.72;;
9783;SDS011;4931;44.874;-1.092;2023-07-22T06:03:53;14.32;;;8.10;;
9783;SDS011;4931;44.874;-1.092;2023-07-22T06:06:18;18.27;;;11.20;;
9783;SDS011;4931;44.874;-1.092;2023-07-22T06:08:44;29.15;;;15.65;;
9783;SDS011;4931;44.874;-1.092;2023-07-22T06:11:10;16.20;;;9.98;;
9783;SDS011;4931;44.874;-1.092;2023-07-22T06:13:35;22.02;;;9.98;;
9783;SDS011;4931;44.874;-1.092;2023-07-22T06:16:01;44.30;;;24.42;;
9783;SDS011;4931;44.874;-1.092;2023-07-22T06:18:26;35.78;;;19.08;;
9783;SDS011;4931;44.874;-1.092;2023-07-22T06:20:51;22.40;;;9.27;;
9783;SDS011;4931;44.874;-1.092;2023-07-22T06:23:17;25.40;;;8.20;;
9783;SDS011;4931;44.874;-1.092;2023-07-22T06:25:43;21.85;;;9.77;;
9783;SDS011;4931;44.874;-1.092;2023-07-22T06:28:08;24.55;;;8.85;;
9783;SDS011;4931;44.874;-1.092;2023-07-22T06:30:34;27.38;;;10.55;;
9783;SDS011;4931;44.874;-1.092;2023-07-22T06:32:59;23.23;;;10.27;;
9783;SDS011;4931;44.874;-1.092;2023-07-22T06:35:25;18.88;;;9.48;;
9783;SDS011;4931;44.874;-1.092;2023-07-22T06:37:50;20.55;;;11.50;;
9783;SDS011;4931;44.874;-1.092;2023-07-22T06:40:16;16.88;;;9.30;;
9783;SDS011;4931;44.874;-1.092;2023-07-22T06:42:42;17.15;;;8.25;;
9783;SDS011;4931;44.874;-1.092;2023-07-22T06:45:08;15.68;;;8.40;;
9783;SDS011;4931;44.874;-1.092;2023-07-22T06:47:34;17.60;;;8.13;;
9783;SDS011;4931;44.874;-1.092;2023-07-22T06:50:00;15.13;;;7.47;;
9783;SDS011;4931;44.874;-1.092;2023-07-22T06:52:25;15.93;;;8.32;;
9783;SDS011;4931;44.874;-1.092;2023-07-22T06:54:51;16.50;;;7.72;;
9783;SDS011;4931;44.874;-1.092;2023-07-22T06:57:16;13.93;;;7.82;;
9783;SDS011;4931;44.874;-1.092;2023-07-22T06:59:42;15.10;;;7.47;;
9783;SDS011;4931;44.874;-1.092;2023-07-22T07:02:08;11.25;;;6.88;;
9783;SDS011;4931;44.874;-1.092;2023-07-22T07:04:33;11.23;;;7.35;;
9783;SDS011;4931;44.874;-1.092;2023-07-22T07:06:59;13.25;;;7.68;;
9783;SDS011;4931;44.874;-1.092;2023-07-22T07:09:25;12.48;;;7.38;;
9783;SDS011;4931;44.874;-1.092;2023-07-22T07:11:50;11.90;;;6.93;;
9783;SDS011;4931;44.874;-1.092;2023-07-22T07:14:17;10.55;;;6.38;;
9783;SDS011;4931;44.874;-1.092;2023-07-22T07:16:43;14.05;;;6.18;;
9783;SDS011;4931;44.874;-1.092;2023-07-22T07:19:08;14.98;;;6.72;;
9783;SDS011;4931;44.874;-1.092;2023-07-22T07:21:34;11.73;;;6.18;;
9783;SDS011;4931;44.874;-1.092;2023-07-22T07:23:59;9.85;;;5.63;;
9783;SDS011;4931;44.874;-1.092;2023-07-22T07:26:25;12.85;;;6.07;;
9783;SDS011;4931;44.874;-1.092;2023-07-22T07:28:51;10.90;;;6.03;;
9783;SDS011;4931;44.874;-1.092;2023-07-22T07:31:17;12.80;;;5.88;;
9783;SDS011;4931;44.874;-1.092;2023-07-22T07:33:42;12.68;;;7.20;;
9783;SDS011;4931;44.874;-1.092;2023-07-22T07:36:08;10.50;;;6.97;;
9783;SDS011;4931;44.874;-1.092;2023-07-22T07:38:34;15.18;;;6.15;;
9783;SDS011;4931;44.874;-1.092;2023-07-22T07:41:02;11.77;;;5.80;;
9783;SDS011;4931;44.874;-1.092;2023-07-22T07:43:29;13.73;;;6.60;;
9783;SDS011;4931;44.874;-1.092;2023-07-22T07:48:39;9.52;;;5.65;;
9783;SDS011;4931;44.874;-1.092;2023-07-22T07:51:04;10.40;;;6.07;;
9783;SDS011;4931;44.874;-1.092;2023-07-22T07:53:30;10.30;;;6.18;;
9783;SDS011;4931;44.874;-1.092;2023-07-22T07:55:55;14.85;;;6.07;;
9783;SDS011;4931;44.874;-1.092;2023-07-22T07:58:21;11.50;;;5.80;;
9783;SDS011;4931;44.874;-1.092;2023-07-22T08:00:46;13.02;;;6.30;;
9783;SDS011;4931;44.874;-1.092;2023-07-22T08:03:12;16.23;;;7.18;;
9783;SDS011;4931;44.874;-1.092;2023-07-22T08:05:37;10.23;;;6.07;;
9783;SDS011;4931;44.874;-1.092;2023-07-22T08:08:03;11.23;;;5.28;;
9783;SDS011;4931;44.874;-1.092;2023-07-22T08:10:28;10.23;;;5.43;;
9783;SDS011;4931;44.874;-1.092;2023-07-22T08:12:54;9.43;;;5.90;;
9783;SDS011;4931;44.874;-1.092;2023-07-22T08:15:19;11.90;;;5.53;;
9783;SDS011;4931;44.874;-1.092;2023-07-22T08:17:45;11.52;;;5.70;;
9783;SDS011;4931;44.874;-1.092;2023-07-22T08:20:10;8.50;;;4.75;;
9783;SDS011;4931;44.874;-1.092;2023-07-22T08:22:36;8.63;;;4.25;;
9783;SDS011;4931;44.874;-1.092;2023-07-22T08:25:02;9.30;;;4.75;;
9783;SDS011;4931;44.874;-1.092;2023-07-22T08:27:28;10.18;;;5.53;;
9783;SDS011;4931;44.874;-1.092;2023-07-22T08:29:53;12.57;;;6.93;;
9783;SDS011;4931;44.874;-1.092;2023-07-22T08:32:19;7.75;;;4.50;;
9783;SDS011;4931;44.874;-1.092;2023-07-22T08:34:45;9.05;;;4.95;;
9783;SDS011;4931;44.874;-1.092;2023-07-22T08:37:10;9.15;;;4.55;;
9783;SDS011;4931;44.874;-1.092;2023-07-22T08:39:37;11.40;;;6.05;;
9783;SDS011;4931;44.874;-1.092;2023-07-22T08:42:03;6.30;;;3.92;;
9783;SDS011;4931;44.874;-1.092;2023-07-22T08:44:31;9.57;;;4.50;;
9783;SDS011;4931;44.874;-1.092;2023-07-22T08:47:00;11.90;;;4.20;;
9783;SDS011;4931;44.874;-1.092;2023-07-22T08:49:29;9.82;;;4.18;;
9783;SDS011;4931;44.874;-1.092;2023-07-22T08:51:55;6.65;;;3.70;;
9783;SDS011;4931;44.874;-1.092;2023-07-22T08:54:23;6.63;;;4.00;;
9783;SDS011;4931;44.874;-1.092;2023-07-22T08:56:49;9.02;;;3.63;;
9783;SDS011;4931;44.874;-1.092;2023-07-22T08:59:17;6.57;;;3.95;;
9783;SDS011;4931;44.874;-1.092;2023-07-22T09:01:43;8.23;;;4.47;;
9783;SDS011;4931;44.874;-1.092;2023-07-22T09:04:09;5.75;;;3.63;;
9783;SDS011;4931;44.874;-1.092;2023-07-22T09:06:34;7.90;;;4.10;;
9783;SDS011;4931;44.874;-1.092;2023-07-22T09:09:01;8.00;;;4.13;;
9783;SDS011;4931;44.874;-1.092;2023-07-22T09:11:32;7.07;;;3.50;;
9783;SDS011;4931;44.874;-1.092;2023-07-22T09:13:58;7.28;;;4.15;;
9783;SDS011;4931;44.874;-1.092;2023-07-22T09:16:26;6.50;;;3.58;;
9783;SDS011;4931;44.874;-1.092;2023-07-22T09:18:54;6.40;;;3.55;;
9783;SDS011;4931;44.874;-1.092;2023-07-22T09:21:21;8.38;;;3.15;;
9783;SDS011;4931;44.874;-1.092;2023-07-22T09:23:46;7.93;;;3.95;;
9783;SDS011;4931;44.874;-1.092;2023-07-22T09:26:12;4.95;;;3.40;;
9783;SDS011;4931;44.874;-1.092;2023-07-22T09:31:14;7.65;;;3.50;;
9783;SDS011;4931;44.874;-1.092;2023-07-22T09:33:40;6.65;;;3.40;;
9783;SDS011;4931;44.874;-1.092;2023-07-22T09:36:05;4.75;;;3.30;;
9783;SDS011;4931;44.874;-1.092;2023-07-22T09:38:31;5.30;;;2.90;;
9783;SDS011;4931;44.874;-1.092;2023-07-22T09:40:56;6.53;;;3.28;;
9783;SDS011;4931;44.874;-1.092;2023-07-22T09:43:22;7.00;;;3.00;;
9783;SDS011;4931;44.874;-1.092;2023-07-22T09:45:48;4.72;;;2.97;;
9783;SDS011;4931;44.874;-1.092;2023-07-22T09:48:15;9.60;;;3.28;;
9783;SDS011;4931;44.874;-1.092;2023-07-22T09:50:41;7.82;;;3.33;;
9783;SDS011;4931;44.874;-1.092;2023-07-22T09:53:06;7.45;;;3.25;;
9783;SDS011;4931;44.874;-1.092;2023-07-22T09:55:32;4.68;;;3.00;;
9783;SDS011;4931;44.874;-1.092;2023-07-22T09:57:59;7.18;;;3.03;;
9783;SDS011;4931;44.874;-1.092;2023-07-22T10:00:33;6.03;;;3.20;;
9783;SDS011;4931;44.874;-1.092;2023-07-22T10:03:00;6.68;;;3.05;;
9783;SDS011;4931;44.874;-1.092;2023-07-22T10:05:27;4.65;;;3.03;;
9783;SDS011;4931;44.874;-1.092;2023-07-22T10:07:58;4.85;;;3.00;;
9783;SDS011;4931;44.874;-1.092;2023-07-22T10:12:59;4.95;;;3.00;;
9783;SDS011;4931;44.874;-1.092;2023-07-22T10:15:27;5.13;;;3.45;;
9783;SDS011;4931;44.874;-1.092;2023-07-22T10:17:55;6.35;;;3.00;;
9783;SDS011;4931;44.874;-1.092;2023-07-22T10:20:21;5.78;;;3.10;;
9783;SDS011;4931;44.874;-1.092;2023-07-22T10:22:48;7.15;;;3.40;;
9783;SDS011;4931;44.874;-1.092;2023-07-22T10:25:15;5.45;;;3.00;;
9783;SDS011;4931;44.874;-1.092;2023-07-22T10:27:47;5.68;;;3.50;;
9783;SDS011;4931;44.874;-1.092;2023-07-22T10:30:14;5.85;;;4.15;;
9783;SDS011;4931;44.874;-1.092;2023-07-22T10:32:42;8.52;;;3.47;;
9783;SDS011;4931;44.874;-1.092;2023-07-22T10:35:09;5.85;;;3.60;;
9783;SDS011;4931;44.874;-1.092;2023-07-22T10:37:39;9.90;;;3.90;;
9783;SDS011;4931;44.874;-1.092;2023-07-22T10:40:19;9.25;;;3.97;;
9783;SDS011;4931;44.874;-1.092;2023-07-22T10:48:18;6.95;;;3.13;;
9783;SDS011;4931;44.874;-1.092;2023-07-22T10:53:27;5.85;;;3.58;;
9783;SDS011;4931;44.874;-1.092;2023-07-22T10:56:11;5.15;;;3.15;;
9783;SDS011;4931;44.874;-1.092;2023-07-22T11:06:31;6.15;;;3.35;;
9783;SDS011;4931;44.874;-1.092;2023-07-22T11:08:57;6.95;;;3.92;;
9783;SDS011;4931;44.874;-1.092;2023-07-22T11:11:44;3.58;;;2.83;;
9783;SDS011;4931;44.874;-1.092;2023-07-22T11:14:14;5.18;;;2.90;;
9783;SDS011;4931;44.874;-1.092;2023-07-22T11:16:44;5.15;;;2.88;;
9783;SDS011;4931;44.874;-1.092;2023-07-22T11:19:12;6.03;;;3.00;;
9783;SDS011;4931;44.874;-1.092;2023-07-22T11:21:39;7.18;;;2.58;;
9783;SDS011;4931;44.874;-1.092;2023-07-22T11:24:05;3.20;;;2.40;;
9783;SDS011;4931;44.874;-1.092;2023-07-22T11:26:32;6.07;;;2.63;;
9783;SDS011;4931;44.874;-1.092;2023-07-22T11:28:59;3.53;;;2.50;;
9783;SDS011;4931;44.874;-1.092;2023-07-22T11:31:35;4.20;;;2.47;;
9783;SDS011;4931;44.874;-1.092;2023-07-22T11:36:44;3.95;;;2.28;;
9783;SDS011;4931;44.874;-1.092;2023-07-22T11:39:10;5.15;;;2.53;;
9783;SDS011;4931;44.874;-1.092;2023-07-22T11:41:39;5.47;;;2.70;;
9783;SDS011;4931;44.874;-1.092;2023-07-22T11:44:08;4.45;;;2.50;;
9783;SDS011;4931;44.874;-1.092;2023-07-22T11:49:27;5.20;;;2.50;;
9783;SDS011;4931;44.874;-1.092;2023-07-22T11:52:01;3.25;;;2.22;;
9783;SDS011;4931;44.874;-1.092;2023-07-22T11:54:29;4.40;;;2.58;;
9783;SDS011;4931;44.874;-1.092;2023-07-22T11:56:55;4.22;;;2.40;;
9783;SDS011;4931;44.874;-1.092;2023-07-22T11:59:37;3.75;;;2.40;;
9783;SDS011;4931;44.874;-1.092;2023-07-22T12:02:05;3.88;;;2.35;;
9783;SDS011;4931;44.874;-1.092;2023-07-22T12:04:31;4.63;;;3.90;;
9783;SDS011;4931;44.874;-1.092;2023-07-22T12:06:58;3.42;;;2.70;;
9783;SDS011;4931;44.874;-1.092;2023-07-22T12:09:24;3.88;;;2.17;;
9783;SDS011;4931;44.874;-1.092;2023-07-22T12:11:58;3.35;;;2.10;;
9783;SDS011;4931;44.874;-1.092;2023-07-22T12:14:25;3.05;;;2.28;;
9783;SDS011;4931;44.874;-1.092;2023-07-22T12:16:58;5.30;;;2.10;;
9783;SDS011;4931;44.874;-1.092;2023-07-22T12:19:24;4.82;;;2.42;;
9783;SDS011;4931;44.874;-1.092;2023-07-22T12:21:53;3.60;;;2.30;;
9783;SDS011;4931;44.874;-1.092;2023-07-22T12:24:18;3.72;;;2.20;;
9783;SDS011;4931;44.874;-1.092;2023-07-22T12:26:44;3.42;;;1.85;;
9783;SDS011;4931;44.874;-1.092;2023-07-22T12:29:09;2.38;;;1.98;;
9783;SDS011;4931;44.874;-1.092;2023-07-22T12:31:36;3.42;;;2.20;;
9783;SDS011;4931;44.874;-1.092;2023-07-22T12:34:01;11.90;;;6.68;;
9783;SDS011;4931;44.874;-1.092;2023-07-22T12:36:27;28.50;;;11.88;;
9783;SDS011;4931;44.874;-1.092;2023-07-22T12:38:52;29.50;;;15.07;;
9783;SDS011;4931;44.874;-1.092;2023-07-22T12:41:18;17.40;;;14.77;;
9783;SDS011;4931;44.874;-1.092;2023-07-22T12:43:43;3.83;;;2.75;;
9783;SDS011;4931;44.874;-1.092;2023-07-22T12:46:09;3.17;;;2.20;;
9783;SDS011;4931;44.874;-1.092;2023-07-22T12:48:34;7.25;;;2.28;;
9783;SDS011;4931;44.874;-1.092;2023-07-22T12:51:00;5.18;;;2.28;;
9783;SDS011;4931;44.874;-1.092;2023-07-22T12:53:26;2.63;;;1.90;;
9783;SDS011;4931;44.874;-1.092;2023-07-22T12:55:51;3.95;;;2.47;;
9783;SDS011;4931;44.874;-1.092;2023-07-22T12:58:17;3.55;;;2.63;;
9783;SDS011;4931;44.874;-1.092;2023-07-22T13:00:42;3.10;;;2.10;;
9783;SDS011;4931;44.874;-1.092;2023-07-22T13:03:08;5.45;;;2.45;;
9783;SDS011;4931;44.874;-1.092;2023-07-22T13:05:33;5.05;;;1.83;;
9783;SDS011;4931;44.874;-1.092;2023-07-22T13:07:59;2.75;;;1.85;;
9783;SDS011;4931;44.874;-1.092;2023-07-22T13:10:26;2.78;;;1.88;;
9783;SDS011;4931;44.874;-1.092;2023-07-22T13:12:54;2.33;;;1.75;;
9783;SDS011;4931;44.874;-1.092;2023-07-22T13:15:19;2.78;;;1.85;;
9783;SDS011;4931;44.874;-1.092;2023-07-22T13:17:45;3.38;;;1.88;;
9783;SDS011;4931;44.874;-1.092;2023-07-22T13:20:10;2.22;;;1.80;;
9783;SDS011;4931;44.874;-1.092;2023-07-22T13:22:37;3.75;;;2.00;;
9783;SDS011;4931;44.874;-1.092;2023-07-22T13:25:06;3.15;;;1.80;;
9783;SDS011;4931;44.874;-1.092;2023-07-22T13:27:32;3.25;;;1.80;;
9783;SDS011;4931;44.874;-1.092;2023-07-22T13:29:57;10.80;;;2.00;;
9783;SDS011;4931;44.874;-1.092;2023-07-22T13:32:23;4.47;;;1.70;;
9783;SDS011;4931;44.874;-1.092;2023-07-22T13:34:49;2.13;;;1.90;;
9783;SDS011;4931;44.874;-1.092;2023-07-22T13:37:14;3.30;;;2.10;;
9783;SDS011;4931;44.874;-1.092;2023-07-22T13:39:41;2.88;;;1.75;;
9783;SDS011;4931;44.874;-1.092;2023-07-22T13:42:06;2.42;;;1.80;;
9783;SDS011;4931;44.874;-1.092;2023-07-22T13:44:32;2.72;;;1.80;;
9783;SDS011;4931;44.874;-1.092;2023-07-22T13:46:57;22.40;;;5.45;;
9783;SDS011;4931;44.874;-1.092;2023-07-22T13:49:23;5.03;;;2.13;;
9783;SDS011;4931;44.874;-1.092;2023-07-22T13:51:48;14.65;;;2.88;;
9783;SDS011;4931;44.874;-1.092;2023-07-22T13:54:14;2.90;;;2.00;;
9783;SDS011;4931;44.874;-1.092;2023-07-22T13:56:41;5.70;;;1.90;;
9783;SDS011;4931;44.874;-1.092;2023-07-22T13:59:08;6.93;;;2.80;;
9783;SDS011;4931;44.874;-1.092;2023-07-22T14:01:35;5.00;;;2.15;;
9783;SDS011;4931;44.874;-1.092;2023-07-22T14:04:00;5.78;;;2.67;;
9783;SDS011;4931;44.874;-1.092;2023-07-22T14:06:26;4.75;;;2.40;;
9783;SDS011;4931;44.874;-1.092;2023-07-22T14:08:51;4.35;;;2.50;;
9783;SDS011;4931;44.874;-1.092;2023-07-22T14:11:17;6.00;;;2.50;;
9783;SDS011;4931;44.874;-1.092;2023-07-22T14:13:43;22.02;;;7.35;;
9783;SDS011;4931;44.874;-1.092;2023-07-22T14:16:09;5.82;;;2.88;;
9783;SDS011;4931;44.874;-1.092;2023-07-22T14:18:35;11.80;;;4.28;;
9783;SDS011;4931;44.874;-1.092;2023-07-22T14:21:00;5.30;;;2.53;;
9783;SDS011;4931;44.874;-1.092;2023-07-22T14:23:26;4.68;;;2.50;;
9783;SDS011;4931;44.874;-1.092;2023-07-22T14:25:51;4.28;;;2.30;;
9783;SDS011;4931;44.874;-1.092;2023-07-22T14:28:17;5.35;;;2.58;;
9783;SDS011;4931;44.874;-1.092;2023-07-22T14:30:42;6.30;;;2.95;;
9783;SDS011;4931;44.874;-1.092;2023-07-22T14:33:08;5.43;;;2.17;;
9783;SDS011;4931;44.874;-1.092;2023-07-22T14:35:33;5.80;;;2.30;;
9783;SDS011;4931;44.874;-1.092;2023-07-22T14:38:00;4.00;;;2.28;;
9783;SDS011;4931;44.874;-1.092;2023-07-22T14:40:25;6.03;;;2.80;;
9783;SDS011;4931;44.874;-1.092;2023-07-22T14:42:51;5.75;;;2.97;;
9783;SDS011;4931;44.874;-1.092;2023-07-22T14:45:17;4.75;;;2.50;;
9783;SDS011;4931;44.874;-1.092;2023-07-22T14:47:42;4.28;;;2.40;;
9783;SDS011;4931;44.874;-1.092;2023-07-22T14:50:08;6.65;;;2.30;;
9783;SDS011;4931;44.874;-1.092;2023-07-22T14:52:34;3.05;;;2.72;;
9783;SDS011;4931;44.874;-1.092;2023-07-22T14:55:00;3.60;;;2.33;;
9783;SDS011;4931;44.874;-1.092;2023-07-22T14:57:25;10.75;;;2.47;;
9783;SDS011;4931;44.874;-1.092;2023-07-22T14:59:56;3.90;;;2.10;;
9783;SDS011;4931;44.874;-1.092;2023-07-22T15:02:22;4.72;;;1.92;;
9783;SDS011;4931;44.874;-1.092;2023-07-22T15:04:47;3.05;;;1.83;;
9783;SDS011;4931;44.874;-1.092;2023-07-22T15:07:13;4.78;;;2.28;;
9783;SDS011;4931;44.874;-1.092;2023-07-22T15:09:39;6.20;;;2.70;;
9783;SDS011;4931;44.874;-1.092;2023-07-22T15:12:04;3.75;;;2.30;;
9783;SDS011;4931;44.874;-1.092;2023-07-22T15:14:30;2.95;;;2.33;;
9783;SDS011;4931;44.874;-1.092;2023-07-22T15:16:56;3.63;;;2.30;;
9783;SDS011;4931;44.874;-1.092;2023-07-22T15:19:21;3.15;;;2.40;;